Time;durP1;ratioP1;P1;durP2;ratioP2;P2;SDS_P1;SDS_P2;PMS_P1;PMS_P2;Temp;Humidity;BMP_temperature;BMP_pressure;BME280_temperature;BME280_humidity;BME280_pressure;Samples;Min_cycle;Max_cycle;Signal;HPM_P1;HPM_P2
2022/07/25 00:00:12;;;;;;;3.30;3.00;;;21.30;99.90;;;;;;5036513;28;20061;-94
2022/07/25 00:02:38;;;;;;;5.80;3.55;;;21.40;99.90;;;;;;5041983;28;20033;-93
2022/07/25 00:05:05;;;;;;;6.05;4.10;;;22.10;99.90;;;;;;5041784;28;20033;-93
2022/07/25 00:07:31;;;;;;;3.80;3.50;;;22.10;99.90;;;;;;5040898;28;20045;-94
2022/07/25 00:09:57;;;;;;;3.60;3.20;;;22.30;99.90;;;;;;5006937;28;20050;-95
2022/07/25 00:12:23;;;;;;;6.22;4.25;;;22.30;99.90;;;;;;5008353;28;20128;-93
2022/07/25 00:14:52;;;;;;;4.38;3.97;;;22.00;99.90;;;;;;5039851;28;20056;-95
2022/07/25 00:17:18;;;;;;;3.88;3.42;;;22.10;99.90;;;;;;5009138;28;20056;-94
2022/07/25 00:19:44;;;;;;;5.22;4.55;;;22.10;99.90;;;;;;5028161;28;20105;-93
2022/07/25 00:22:10;;;;;;;5.38;4.88;;;22.80;99.90;;;;;;5047950;28;20073;-95
2022/07/25 00:24:38;;;;;;;5.03;4.57;;;23.30;99.90;;;;;;5027832;28;20045;-95
2022/07/25 00:27:07;;;;;;;9.55;5.05;;;22.30;99.90;;;;;;5059689;28;20560;-94
2022/07/25 00:29:35;;;;;;;7.57;4.93;;;23.40;99.90;;;;;;5053461;28;20089;-93
2022/07/25 00:32:14;;;;;;;5.15;4.65;;;22.00;99.90;;;;;;5076948;23;20042;-92
2022/07/25 00:34:40;;;;;;;5.15;4.65;;;23.10;99.90;;;;;;5045539;28;20057;-93
2022/07/25 00:37:06;;;;;;;6.35;4.63;;;22.30;99.90;;;;;;5023255;28;20140;-93
2022/07/25 00:39:35;;;;;;;5.55;5.05;;;22.80;99.90;;;;;;5032692;28;20147;-93
2022/07/25 00:42:03;;;;;;;5.00;4.50;;;22.00;99.90;;;;;;5034566;28;20045;-93
2022/07/25 00:44:32;;;;;;;5.97;5.10;;;21.80;99.90;;;;;;5034850;28;20146;-93
2022/07/25 00:47:01;;;;;;;5.65;5.15;;;21.90;99.90;;;;;;5037053;28;20049;-94
2022/07/25 00:49:32;;;;;;;6.18;5.38;;;21.80;99.90;;;;;;5038696;28;20131;-92
2022/07/25 00:52:00;;;;;;;5.75;5.18;;;21.80;99.90;;;;;;5071821;28;20089;-94
2022/07/25 00:54:34;;;;;;;5.93;5.32;;;21.90;99.90;;;;;;5027254;28;20025;-92
2022/07/25 00:57:09;;;;;;;6.07;5.40;;;21.90;99.90;;;;;;5059428;28;20045;-93
2022/07/25 00:59:37;;;;;;;6.07;5.40;;;21.80;99.90;;;;;;5021025;28;20052;-94
2022/07/25 01:02:05;;;;;;;5.90;5.32;;;20.90;99.90;;;;;;5050005;28;20096;-93
2022/07/25 01:05:01;;;;;;;;;;;;;;;;;;;;;
2022/07/25 01:07:37;;;;;;;6.45;5.85;;;21.40;99.90;;;;;;5047444;28;20056;-94
2022/07/25 01:10:06;;;;;;;7.63;5.82;;;20.40;99.90;;;;;;5042092;28;20049;-94
2022/07/25 01:12:42;;;;;;;7.05;6.25;;;21.50;99.90;;;;;;5039105;28;20048;-93
2022/07/25 01:15:11;;;;;;;7.18;6.47;;;22.00;99.90;;;;;;5043157;28;20036;-94
2022/07/25 01:17:39;;;;;;;9.13;6.82;;;20.00;99.90;;;;;;5056281;28;20045;-92
2022/07/25 01:20:33;;;;;;;7.05;6.13;;;21.30;99.90;;;;;;5053571;28;20059;-93
2022/07/25 01:23:09;;;;;;;6.47;5.85;;;21.30;99.90;;;;;;5068390;28;20049;-93
2022/07/25 01:25:39;;;;;;;8.18;7.15;;;19.30;99.90;;;;;;5024371;28;20070;-93
2022/07/25 01:28:08;;;;;;;10.63;6.68;;;21.20;99.90;;;;;;5074783;28;20041;-93
2022/07/25 01:31:04;;;;;;;;;;;;;;;;;;;;;
2022/07/25 01:33:35;;;;;;;7.22;6.53;;;21.00;99.90;;;;;;5055065;28;20060;-93
2022/07/25 01:36:08;;;;;;;7.82;6.30;;;21.00;99.90;;;;;;5037388;28;20055;-91
2022/07/25 01:38:46;;;;;;;7.38;6.03;;;20.90;99.90;;;;;;5041192;28;20026;-93
2022/07/25 01:41:14;;;;;;;7.43;6.22;;;21.10;99.90;;;;;;5010127;28;20061;-93
2022/07/25 01:43:40;;;;;;;7.30;5.97;;;20.90;99.90;;;;;;5024733;28;20048;-93
2022/07/25 01:46:09;;;;;;;7.00;6.30;;;20.90;99.90;;;;;;5035550;28;20046;-93
2022/07/25 01:48:39;;;;;;;6.50;5.90;;;20.70;99.90;;;;;;5027736;28;20052;-93
2022/07/25 01:51:14;;;;;;;7.38;6.57;;;20.70;99.90;;;;;;5022323;28;20073;-92
2022/07/25 01:53:40;;;;;;;7.70;6.10;;;20.70;99.90;;;;;;5028569;28;20030;-93
2022/07/25 01:56:11;;;;;;;6.85;6.15;;;20.70;99.90;;;;;;5011583;28;20041;-92
2022/07/25 01:58:37;;;;;;;7.28;6.55;;;20.60;99.90;;;;;;5028832;28;20134;-93
2022/07/25 02:01:13;;;;;;;;;;;;;;;;;;;;;
2022/07/25 02:03:42;;;;;;;7.20;6.45;;;19.60;99.90;;;;;;5027346;28;20075;-93
2022/07/25 02:06:28;;;;;;;7.68;6.75;;;19.30;99.90;;;;;;5018322;28;20101;-93
2022/07/25 02:09:12;;;;;;;7.35;6.65;;;22.00;99.90;;;;;;5019901;28;20109;-93
2022/07/25 02:11:49;;;;;;;8.43;7.07;;;20.30;99.90;;;;;;5027568;28;20062;-93
2022/07/25 02:14:15;;;;;;;8.30;6.85;;;20.60;99.90;;;;;;5069486;28;20041;-93
2022/07/25 02:16:56;;;;;;;;;;;;;;;;;;;;;
2022/07/25 02:19:22;;;;;;;8.45;7.50;;;19.10;99.90;;;;;;5039128;28;20338;-95
2022/07/25 02:21:48;;;;;;;7.85;7.05;;;20.10;99.90;;;;;;5017758;28;20060;-94
2022/07/25 02:24:14;;;;;;;8.13;7.30;;;19.20;99.90;;;;;;5011194;28;20088;-93
2022/07/25 02:26:46;;;;;;;8.18;6.80;;;20.40;99.90;;;;;;5021722;28;20072;-94
2022/07/25 02:29:14;;;;;;;7.90;7.10;;;20.30;99.90;;;;;;5033865;28;20041;-93
2022/07/25 02:31:40;;;;;;;9.15;7.05;;;20.30;99.90;;;;;;5034964;28;20044;-93
2022/07/25 02:34:08;;;;;;;8.27;7.47;;;20.10;99.90;;;;;;5022977;28;20051;-92
2022/07/25 02:36:42;;;;;;;8.15;7.25;;;20.20;99.90;;;;;;5053861;28;20075;-93
2022/07/25 02:39:08;;;;;;;8.13;7.28;;;20.10;99.90;;;;;;5039800;28;20072;-93
2022/07/25 02:41:37;;;;;;;8.93;7.45;;;18.30;99.90;;;;;;5036486;28;20094;-93
2022/07/25 02:44:05;;;;;;;8.10;7.30;;;20.00;99.90;;;;;;5029140;28;20060;-93
2022/07/25 02:46:32;;;;;;;9.93;7.95;;;19.90;99.90;;;;;;5041863;28;20049;-93
2022/07/25 02:48:58;;;;;;;7.97;7.18;;;20.10;99.90;;;;;;5046237;28;20044;-93
2022/07/25 02:51:24;;;;;;;8.77;7.85;;;19.90;99.90;;;;;;5031896;28;20091;-94
2022/07/25 02:53:53;;;;;;;9.00;7.50;;;19.90;99.90;;;;;;5031134;28;20049;-94
2022/07/25 02:56:23;;;;;;;8.88;7.97;;;18.10;99.90;;;;;;5036234;28;20056;-94
2022/07/25 02:59:10;;;;;;;9.82;8.10;;;19.80;99.90;;;;;;5053603;28;20048;-95
2022/07/25 03:01:45;;;;;;;9.15;8.25;;;19.10;99.90;;;;;;5043149;28;20088;-94
2022/07/25 03:04:21;;;;;;;9.80;7.68;;;19.70;99.90;;;;;;5041454;28;20056;-92
2022/07/25 03:06:50;;;;;;;8.35;7.50;;;20.00;99.90;;;;;;5072665;28;20076;-93
2022/07/25 03:09:18;;;;;;;12.50;8.27;;;19.80;99.90;;;;;;5049745;28;20049;-94
2022/07/25 03:11:56;;;;;;;9.02;8.13;;;19.20;99.90;;;;;;5058112;28;20033;-93
2022/07/25 03:17:13;;;;;;;10.20;9.13;;;20.00;99.90;;;;;;5045132;28;20040;-95
2022/07/25 03:19:45;;;;;;;10.30;8.57;;;19.80;99.90;;;;;;5026744;28;20037;-94
2022/07/25 03:25:05;;;;;;;9.23;8.32;;;20.00;99.90;;;;;;5064668;28;20029;-94
2022/07/25 03:27:39;;;;;;;8.98;7.88;;;19.90;99.90;;;;;;5073408;28;20046;-94
2022/07/25 03:30:14;;;;;;;8.85;8.05;;;21.30;99.90;;;;;;5043729;28;20045;-93
2022/07/25 03:32:46;;;;;;;9.10;8.20;;;21.80;99.90;;;;;;5076453;28;20048;-93
2022/07/25 03:35:15;;;;;;;8.30;7.55;;;19.90;99.90;;;;;;5041393;28;20064;-92
2022/07/25 03:37:44;;;;;;;8.85;8.02;;;18.50;99.90;;;;;;5038787;28;20061;-93
2022/07/25 03:40:15;;;;;;;10.80;8.80;;;19.90;99.90;;;;;;5040228;28;20029;-94
2022/07/25 03:42:41;;;;;;;8.43;7.72;;;18.50;99.90;;;;;;5049169;28;20045;-94
2022/07/25 03:45:11;;;;;;;10.90;9.57;;;19.70;99.90;;;;;;5016322;28;20057;-96
2022/07/25 03:47:42;;;;;;;9.60;8.60;;;19.90;99.90;;;;;;5034388;28;20077;-94
2022/07/25 03:50:08;;;;;;;9.95;8.75;;;20.50;99.90;;;;;;5001121;28;20050;-94
2022/07/25 03:52:34;;;;;;;9.55;8.65;;;20.60;99.90;;;;;;5029564;28;20045;-91
2022/07/25 03:55:00;;;;;;;9.70;8.75;;;19.80;99.90;;;;;;5051405;28;20084;-93
2022/07/25 03:57:26;;;;;;;11.30;8.77;;;19.80;99.90;;;;;;5054563;28;20053;-92
2022/07/25 04:00:03;;;;;;;10.48;9.27;;;21.80;99.90;;;;;;5055184;28;20078;-94
2022/07/25 04:02:29;;;;;;;10.40;8.93;;;20.20;99.90;;;;;;5018691;28;20048;-91
2022/07/25 04:04:55;;;;;;;10.27;9.23;;;20.70;99.90;;;;;;5033611;28;20301;-93
2022/07/25 04:07:24;;;;;;;11.07;9.35;;;20.20;99.90;;;;;;5034184;28;20048;-93
2022/07/25 04:09:53;;;;;;;11.48;9.75;;;20.50;99.90;;;;;;5042624;28;20045;-92
2022/07/25 04:12:19;;;;;;;9.90;9.00;;;18.80;99.90;;;;;;5024999;28;20053;-92
2022/07/25 04:14:52;;;;;;;13.77;9.70;;;20.00;99.90;;;;;;4999481;28;20049;-96
2022/07/25 04:17:24;;;;;;;12.25;9.93;;;20.40;99.90;;;;;;5011131;28;20045;-94
2022/07/25 04:19:49;;;;;;;10.65;9.55;;;19.40;99.90;;;;;;5043903;28;20049;-93
2022/07/25 04:22:15;;;;;;;11.70;9.63;;;18.70;99.90;;;;;;4992862;28;20058;-94
2022/07/25 04:24:50;;;;;;;10.60;9.50;;;20.50;99.90;;;;;;5010222;28;20041;-92
2022/07/25 04:27:19;;;;;;;11.27;10.07;;;19.20;99.90;;;;;;5002698;28;20077;-94
2022/07/25 04:29:48;;;;;;;15.82;9.65;;;20.70;99.90;;;;;;5028378;28;20175;-94
2022/07/25 04:32:15;;;;;;;13.88;10.07;;;22.50;99.90;;;;;;5010202;28;20063;-94
2022/07/25 04:34:44;;;;;;;11.07;9.88;;;20.90;99.90;;;;;;5035864;28;20108;-93
2022/07/25 04:37:10;;;;;;;11.52;10.20;;;21.10;99.90;;;;;;5034426;28;20052;-95
2022/07/25 04:39:41;;;;;;;11.15;10.05;;;21.20;99.90;;;;;;5040361;28;20060;-92
2022/07/25 04:42:07;;;;;;;11.15;9.88;;;20.60;99.90;;;;;;5061071;28;20037;-93
2022/07/25 04:44:32;;;;;;;12.25;10.52;;;21.30;99.90;;;;;;5027914;28;20029;-92
2022/07/25 04:46:58;;;;;;;13.20;10.32;;;21.60;99.90;;;;;;5028597;28;20043;-94
2022/07/25 04:49:27;;;;;;;11.18;10.02;;;22.10;99.90;;;;;;5077688;28;20037;-90
2022/07/25 04:51:54;;;;;;;11.73;10.32;;;21.20;99.90;;;;;;5060735;28;20052;-94
2022/07/25 04:54:29;;;;;;;14.38;10.60;;;23.20;99.90;;;;;;5023466;28;20101;-93
2022/07/25 04:56:55;;;;;;;11.93;10.63;;;23.90;99.90;;;;;;5028438;28;20045;-94
2022/07/25 04:59:24;;;;;;;10.77;9.68;;;24.30;99.90;;;;;;5029914;28;20052;-93
2022/07/25 05:01:53;;;;;;;13.73;10.25;;;24.40;99.90;;;;;;5015717;28;20041;-94
2022/07/25 05:04:20;;;;;;;11.02;9.68;;;24.80;99.90;;;;;;5034012;28;20047;-95
2022/07/25 05:06:46;;;;;;;11.02;9.85;;;24.90;99.90;;;;;;5011328;28;20042;-94
2022/07/25 05:09:15;;;;;;;10.23;9.23;;;24.80;99.90;;;;;;5015005;28;20049;-93
2022/07/25 05:11:41;;;;;;;12.35;9.35;;;24.60;99.90;;;;;;5031482;28;20128;-92
2022/07/25 05:14:07;;;;;;;12.05;9.40;;;24.30;99.90;;;;;;5031219;28;20057;-93
2022/07/25 05:16:32;;;;;;;12.48;9.48;;;23.40;99.90;;;;;;5015796;28;20100;-92
2022/07/25 05:18:58;;;;;;;11.68;9.57;;;24.20;99.90;;;;;;5040902;28;20041;-92
2022/07/25 05:21:26;;;;;;;11.32;10.13;;;24.00;99.90;;;;;;5055547;28;20053;-93
2022/07/25 05:23:52;;;;;;;14.45;10.00;;;24.60;99.90;;;;;;5059931;28;20045;-92
2022/07/25 05:26:41;;;;;;;10.85;9.70;;;25.20;99.90;;;;;;5060769;28;20041;-94
2022/07/25 05:29:11;;;;;;;13.63;9.38;;;25.40;99.90;;;;;;5043479;28;20049;-92
2022/07/25 05:31:39;;;;;;;10.35;9.32;;;25.80;99.90;;;;;;5044137;28;20048;-93
2022/07/25 05:34:05;;;;;;;9.98;9.00;;;26.00;99.90;;;;;;5060571;28;20068;-92
2022/07/25 05:36:33;;;;;;;10.77;9.05;;;25.50;99.90;;;;;;5043396;28;20045;-93
2022/07/25 05:39:01;;;;;;;11.82;9.15;;;25.40;99.90;;;;;;5041774;28;20045;-92
2022/07/25 05:41:27;;;;;;;14.02;9.27;;;25.10;99.90;;;;;;5057586;28;20053;-91
2022/07/25 05:43:53;;;;;;;9.75;8.73;;;24.80;99.90;;;;;;5023901;28;20048;-91
2022/07/25 05:46:21;;;;;;;9.43;8.43;;;24.80;99.90;;;;;;5067793;28;20164;-93
2022/07/25 05:48:50;;;;;;;9.82;8.70;;;24.90;99.90;;;;;;5036620;28;20044;-92
2022/07/25 05:51:18;;;;;;;11.60;8.65;;;25.80;99.90;;;;;;5036434;28;20049;-92
2022/07/25 05:53:44;;;;;;;8.73;7.82;;;24.90;99.90;;;;;;5028737;28;20041;-92
2022/07/25 05:56:09;;;;;;;10.95;7.85;;;25.00;99.90;;;;;;5017553;28;20128;-94
2022/07/25 05:58:39;;;;;;;9.05;8.13;;;24.40;99.90;;;;;;5015675;28;20092;-94
2022/07/25 06:01:11;;;;;;;8.73;7.85;;;24.90;99.90;;;;;;5048001;28;20060;-91
2022/07/25 06:03:37;;;;;;;9.52;7.38;;;24.10;99.90;;;;;;5062587;28;20053;-93
2022/07/25 06:06:07;;;;;;;8.80;7.53;;;25.70;99.90;;;;;;5064090;28;20052;-93
2022/07/25 06:08:33;;;;;;;9.27;7.38;;;25.20;99.90;;;;;;5047397;28;20071;-92
2022/07/25 06:10:59;;;;;;;7.82;7.05;;;25.30;99.90;;;;;;5058912;28;20052;-92
2022/07/25 06:13:25;;;;;;;8.73;7.18;;;25.10;99.90;;;;;;5074078;28;20055;-93
2022/07/25 06:15:53;;;;;;;7.38;6.63;;;25.00;99.90;;;;;;5055472;28;20088;-94
2022/07/25 06:18:20;;;;;;;8.80;8.00;;;24.80;99.90;;;;;;5038595;28;20071;-92
2022/07/25 06:20:50;;;;;;;8.40;7.40;;;24.80;99.90;;;;;;5077243;28;20033;-93
2022/07/25 06:23:16;;;;;;;8.65;6.90;;;24.80;99.90;;;;;;5114823;23;20057;-94
2022/07/25 06:25:42;;;;;;;8.10;7.15;;;24.80;99.90;;;;;;5047257;28;20045;-93
2022/07/25 06:28:08;;;;;;;8.40;7.60;;;25.00;99.90;;;;;;5063398;28;20028;-92
2022/07/25 06:30:36;;;;;;;7.65;6.95;;;25.20;99.90;;;;;;5071889;28;20049;-91
2022/07/25 06:33:01;;;;;;;8.30;7.38;;;26.10;99.90;;;;;;5051707;28;20045;-93
2022/07/25 06:35:27;;;;;;;8.57;7.60;;;26.80;99.90;;;;;;5029392;28;20056;-94
2022/07/25 06:37:56;;;;;;;8.73;7.80;;;27.00;99.90;;;;;;5061585;28;20243;-92
2022/07/25 06:40:21;;;;;;;9.88;8.07;;;27.00;99.90;;;;;;5043629;28;20105;-92
2022/07/25 06:42:47;;;;;;;10.60;8.38;;;27.20;99.90;;;;;;5060047;28;20091;-92
2022/07/25 06:45:13;;;;;;;8.93;8.02;;;26.00;99.90;;;;;;5012460;28;20051;-94
2022/07/25 06:47:42;;;;;;;9.80;8.60;;;26.60;99.90;;;;;;5008856;28;20053;-87
2022/07/25 06:50:10;;;;;;;10.32;8.77;;;26.70;99.90;;;;;;5059733;28;20481;-87
2022/07/25 06:52:36;;;;;;;10.40;8.70;;;27.40;99.90;;;;;;5041140;28;20052;-83
2022/07/25 06:55:03;;;;;;;10.27;8.68;;;27.90;99.90;;;;;;5023369;28;20048;-84
2022/07/25 06:57:28;;;;;;;10.48;7.93;;;27.80;99.90;;;;;;5039872;28;20049;-84
2022/07/25 06:59:54;;;;;;;9.45;8.40;;;28.30;99.90;;;;;;5053606;28;20491;-84
2022/07/25 07:02:20;;;;;;;9.15;8.23;;;28.40;99.90;;;;;;5045288;28;20511;-82
2022/07/25 07:04:45;;;;;;;8.63;7.72;;;28.80;99.90;;;;;;5045290;28;20041;-82
2022/07/25 07:07:11;;;;;;;9.63;8.57;;;29.20;99.90;;;;;;5045716;28;20101;-82
2022/07/25 07:09:37;;;;;;;9.52;8.63;;;29.70;99.90;;;;;;5031927;28;20118;-83
2022/07/25 07:12:03;;;;;;;9.27;8.48;;;29.90;99.90;;;;;;5028245;28;20045;-83
2022/07/25 07:14:28;;;;;;;9.50;8.38;;;29.80;99.90;;;;;;5045558;28;20477;-83
2022/07/25 07:16:54;;;;;;;8.70;7.82;;;30.50;99.90;;;;;;5046320;28;20049;-83
2022/07/25 07:19:19;;;;;;;9.07;8.05;;;29.90;99.90;;;;;;5044863;28;20049;-83
2022/07/25 07:21:48;;;;;;;8.50;7.70;;;30.20;99.90;;;;;;5044060;28;20038;-84
2022/07/25 07:24:14;;;;;;;8.75;7.95;;;30.90;99.90;;;;;;5002858;28;20096;-85
2022/07/25 07:26:43;;;;;;;9.38;8.43;;;31.40;99.90;;;;;;5035596;28;20099;-84
2022/07/25 07:29:08;;;;;;;8.52;7.65;;;30.50;99.90;;;;;;5022358;28;20045;-82
2022/07/25 07:31:34;;;;;;;8.27;7.57;;;30.60;99.90;;;;;;5056835;28;20059;-81
2022/07/25 07:34:00;;;;;;;10.00;8.40;;;31.00;99.90;;;;;;5062611;28;20311;-82
2022/07/25 07:36:25;;;;;;;9.75;8.75;;;30.00;99.90;;;;;;5044188;28;20478;-83
2022/07/25 07:38:51;;;;;;;8.40;7.60;;;29.50;99.90;;;;;;5025669;28;20040;-82
2022/07/25 07:41:18;;;;;;;9.07;8.27;;;29.00;99.90;;;;;;5054876;28;20124;-83
2022/07/25 07:43:44;;;;;;;9.23;8.00;;;29.30;99.90;;;;;;5032076;28;20050;-85
2022/07/25 07:46:09;;;;;;;9.23;8.32;;;29.30;99.90;;;;;;5043963;28;20037;-83
2022/07/25 07:48:36;;;;;;;9.20;8.38;;;29.30;99.90;;;;;;5021456;28;20041;-83
2022/07/25 07:51:03;;;;;;;9.80;8.80;;;28.70;99.90;;;;;;5036453;28;20045;-82
2022/07/25 07:56:19;;;;;;;10.18;9.13;;;27.60;99.90;;;;;;5052636;28;20053;-85
2022/07/25 07:58:45;;;;;;;10.80;9.80;;;27.60;99.90;;;;;;5066938;28;20030;-85
2022/07/25 08:01:10;;;;;;;10.15;9.18;;;27.70;99.90;;;;;;5058116;28;20052;-96
2022/07/25 08:03:36;;;;;;;9.68;8.77;;;27.70;99.90;;;;;;5054018;28;20050;-94
2022/07/25 08:06:02;;;;;;;9.55;8.63;;;28.30;99.90;;;;;;5052057;28;20053;-94
2022/07/25 08:08:29;;;;;;;12.25;8.88;;;29.10;99.90;;;;;;5126667;23;20116;-93
2022/07/25 08:10:54;;;;;;;9.70;8.75;;;29.40;99.90;;;;;;5037875;28;20072;-94
2022/07/25 08:13:25;;;;;;;11.27;8.43;;;29.20;99.90;;;;;;5030500;28;20072;-95
2022/07/25 08:15:56;;;;;;;9.23;8.32;;;30.20;99.90;;;;;;5040104;28;20046;-95
2022/07/25 08:18:23;;;;;;;10.52;8.57;;;30.10;99.90;;;;;;5056075;28;20049;-94
2022/07/25 08:20:51;;;;;;;8.90;8.13;;;29.60;99.90;;;;;;5054649;28;20119;-96
2022/07/25 08:23:18;;;;;;;9.75;8.75;;;28.00;99.90;;;;;;5029192;28;20123;-95
2022/07/25 08:25:44;;;;;;;9.90;8.57;;;28.70;99.90;;;;;;5040611;28;20025;-93
2022/07/25 08:28:10;;;;;;;10.38;8.98;;;28.20;99.90;;;;;;5022085;28;20066;-94
2022/07/25 08:30:37;;;;;;;9.35;8.40;;;27.50;99.90;;;;;;5024363;28;20037;-94
2022/07/25 08:33:09;;;;;;;9.80;8.80;;;27.00;99.90;;;;;;5052354;28;20041;-91
2022/07/25 08:35:38;;;;;;;10.60;8.90;;;27.00;99.90;;;;;;5020474;28;20112;-95
2022/07/25 08:38:04;;;;;;;9.23;7.85;;;26.30;99.90;;;;;;5019153;28;20049;-94
2022/07/25 08:40:38;;;;;;;9.40;7.80;;;27.50;99.90;;;;;;5038706;28;20112;-93
2022/07/25 08:43:06;;;;;;;8.68;7.80;;;27.90;99.90;;;;;;5049242;28;20048;-94
2022/07/25 08:45:32;;;;;;;9.48;7.93;;;28.30;99.90;;;;;;5037469;28;20044;-94
2022/07/25 08:47:58;;;;;;;8.77;7.82;;;27.90;99.90;;;;;;5051191;28;20041;-96
2022/07/25 08:50:30;;;;;;;8.80;7.95;;;27.90;99.90;;;;;;5031582;28;20036;-93
2022/07/25 08:52:59;;;;;;;8.00;7.10;;;27.30;99.90;;;;;;5106553;23;20203;-92
2022/07/25 08:55:27;;;;;;;8.60;7.40;;;26.40;99.90;;;;;;5013021;28;20088;-93
2022/07/25 08:57:53;;;;;;;7.95;7.25;;;27.20;99.90;;;;;;5049525;28;20051;-92
2022/07/25 09:00:21;;;;;;;7.90;7.10;;;27.30;99.90;;;;;;5025181;28;20053;-89
2022/07/25 09:02:57;;;;;;;8.45;7.57;;;26.90;99.90;;;;;;5006428;28;20056;-91
2022/07/25 09:05:23;;;;;;;7.57;6.80;;;26.50;99.90;;;;;;5007049;28;20076;-88
2022/07/25 09:07:50;;;;;;;7.93;6.70;;;24.80;99.90;;;;;;5008877;28;20049;-91
2022/07/25 09:10:18;;;;;;;8.18;7.43;;;26.30;99.90;;;;;;5016594;28;20049;-92
2022/07/25 09:12:54;;;;;;;8.15;6.93;;;25.30;99.90;;;;;;5012326;28;20056;-93
2022/07/25 09:15:47;;;;;;;7.45;6.75;;;27.20;99.90;;;;;;5030860;28;20049;-93
2022/07/25 09:18:14;;;;;;;7.22;6.53;;;26.20;99.90;;;;;;5046504;28;20068;-92
2022/07/25 09:20:43;;;;;;;7.72;6.05;;;26.10;99.90;;;;;;5014734;28;20041;-94
2022/07/25 09:23:13;;;;;;;6.90;6.13;;;25.40;99.90;;;;;;5035010;28;20049;-95
2022/07/25 09:25:42;;;;;;;7.32;6.63;;;26.00;99.90;;;;;;5030363;28;20045;-91
2022/07/25 09:28:14;;;;;;;7.20;6.50;;;26.20;99.90;;;;;;5006513;28;20044;-93
2022/07/25 09:30:53;;;;;;;8.00;6.57;;;26.20;99.90;;;;;;5031278;28;20045;-92
2022/07/25 09:33:22;;;;;;;7.47;6.50;;;26.30;99.90;;;;;;5033771;28;20025;-92
2022/07/25 09:35:56;;;;;;;7.45;6.20;;;26.10;99.90;;;;;;5038135;28;20052;-94
2022/07/25 09:38:26;;;;;;;6.72;6.13;;;26.70;99.90;;;;;;5018716;28;20033;-91
2022/07/25 09:41:00;;;;;;;8.23;6.47;;;26.10;99.90;;;;;;5023900;28;20037;-91
2022/07/25 09:43:39;;;;;;;7.75;6.95;;;26.40;99.90;;;;;;5044168;28;20044;-92
2022/07/25 09:46:05;;;;;;;7.65;6.10;;;26.90;99.90;;;;;;5060744;28;20052;-94
2022/07/25 09:48:35;;;;;;;5.55;5.05;;;26.90;99.90;;;;;;5004816;28;20045;-94
2022/07/25 09:51:01;;;;;;;4.93;4.47;;;27.10;99.90;;;;;;5035350;28;20056;-91
2022/07/25 09:53:27;;;;;;;3.97;3.30;;;26.90;99.90;;;;;;5028945;28;20057;-91
2022/07/25 09:55:53;;;;;;;3.80;3.28;;;28.90;99.90;;;;;;5015039;28;20069;-90
2022/07/25 09:58:19;;;;;;;3.63;3.25;;;26.90;99.90;;;;;;5022847;28;20063;-91
2022/07/25 10:00:45;;;;;;;3.53;2.53;;;27.50;99.90;;;;;;5025694;28;20049;-91
2022/07/25 10:03:17;;;;;;;4.20;2.60;;;27.60;99.90;;;;;;5029545;28;20052;-91
2022/07/25 10:06:00;;;;;;;2.40;2.20;;;27.80;99.90;;;;;;5049398;28;20045;-92
2022/07/25 10:08:37;;;;;;;2.75;2.22;;;28.10;99.90;;;;;;5029854;28;20056;-93
2022/07/25 10:11:05;;;;;;;2.60;2.30;;;27.70;99.90;;;;;;5065885;28;20036;-91
2022/07/25 10:13:35;;;;;;;3.15;2.08;;;27.30;99.90;;;;;;5031876;28;20099;-91
2022/07/25 10:16:01;;;;;;;2.65;2.20;;;27.20;99.90;;;;;;5044115;28;20033;-90
2022/07/25 10:18:28;;;;;;;3.53;2.45;;;27.20;99.90;;;;;;5034682;23;20048;-93
2022/07/25 10:21:07;;;;;;;2.95;2.00;;;26.10;99.90;;;;;;5050128;28;20045;-92
2022/07/25 10:23:33;;;;;;;2.08;1.88;;;26.70;99.90;;;;;;5005958;28;20041;-91
2022/07/25 10:26:10;;;;;;;2.72;2.17;;;26.50;99.90;;;;;;5023359;28;20048;-91
2022/07/25 10:28:43;;;;;;;2.20;2.00;;;26.40;99.90;;;;;;5009337;28;20079;-94
2022/07/25 10:31:31;;;;;;;2.83;2.30;;;27.10;99.90;;;;;;4994429;28;20057;-93
2022/07/25 10:34:01;;;;;;;3.40;2.15;;;27.40;99.90;;;;;;5011373;28;20391;-94
2022/07/25 10:36:40;;;;;;;3.03;2.08;;;27.50;99.90;;;;;;5009167;28;20109;-96
2022/07/25 10:39:10;;;;;;;2.30;2.10;;;27.80;99.90;;;;;;5007923;28;20053;-93
2022/07/25 10:41:40;;;;;;;1.88;1.77;;;27.50;99.90;;;;;;5024369;28;20515;-92
2022/07/25 10:44:11;;;;;;;1.75;1.60;;;28.20;99.90;;;;;;5009976;28;20046;-96
2022/07/25 10:46:42;;;;;;;2.47;1.80;;;28.30;99.90;;;;;;5015682;28;20109;-93
2022/07/25 10:49:16;;;;;;;2.28;1.55;;;28.00;99.90;;;;;;5021813;28;20046;-92
2022/07/25 10:51:41;;;;;;;;;;;27.50;99.90;;;;;;5016082;28;20045;-91
2022/07/25 10:54:14;;;;;;;1.83;1.70;;;27.20;99.90;;;;;;4999002;28;19922;-94
2022/07/25 10:56:50;;;;;;;2.47;1.65;;;26.90;99.90;;;;;;4998096;28;20045;-93
2022/07/25 10:59:42;;;;;;;2.42;2.03;;;26.90;99.90;;;;;;5009905;28;20045;-93
2022/07/25 11:02:15;;;;;;;2.65;2.10;;;26.60;99.90;;;;;;4992544;28;20065;-92
2022/07/25 11:04:56;;;;;;;2.30;2.10;;;26.50;99.90;;;;;;5008728;28;20073;-91
2022/07/25 11:07:22;;;;;;;2.50;2.30;;;26.20;99.90;;;;;;4992617;28;20076;-91
2022/07/25 11:09:56;;;;;;;4.18;2.08;;;25.40;99.90;;;;;;5039038;28;20053;-92
2022/07/25 11:12:21;;;;;;;2.65;1.60;;;25.90;99.90;;;;;;5038682;28;20064;-92
2022/07/25 11:14:47;;;;;;;5.10;2.00;;;25.30;99.90;;;;;;5017131;28;20049;-90
2022/07/25 11:17:33;;;;;;;;;;;;;;;;;;;;;
2022/07/25 11:20:18;;;;;;;3.33;1.70;;;23.00;99.90;;;;;;5004566;28;20084;-93
2022/07/25 11:22:53;;;;;;;2.10;1.90;;;24.60;99.90;;;;;;5004058;28;20089;-92
2022/07/25 11:25:20;;;;;;;2.88;1.80;;;24.60;99.90;;;;;;5004565;28;20097;-92
2022/07/25 11:27:49;;;;;;;1.98;1.77;;;24.50;99.90;;;;;;5003508;28;20045;-92
2022/07/25 11:30:18;;;;;;;2.75;1.98;;;24.60;99.90;;;;;;5019202;28;20057;-92
2022/07/25 11:32:54;;;;;;;3.83;2.28;;;25.10;99.90;;;;;;4988940;28;20054;-93
2022/07/25 11:35:28;;;;;;;4.72;2.28;;;25.10;99.90;;;;;;5021501;28;20061;-90
2022/07/25 11:37:54;;;;;;;3.17;2.35;;;25.00;99.90;;;;;;5020131;28;20030;-87
2022/07/25 11:40:22;;;;;;;6.13;2.78;;;25.20;99.90;;;;;;5016749;28;20045;-89
2022/07/25 11:42:54;;;;;;;3.63;2.05;;;25.40;99.90;;;;;;5038920;28;20026;-90
2022/07/25 11:45:23;;;;;;;5.90;2.42;;;25.00;99.90;;;;;;5001396;28;20054;-89
2022/07/25 11:48:03;;;;;;;3.63;2.25;;;25.00;99.90;;;;;;4987297;28;20168;-94
2022/07/25 11:50:30;;;;;;;5.07;2.50;;;25.10;99.90;;;;;;5001053;28;20041;-91
2022/07/25 11:53:06;;;;;;;5.57;2.63;;;23.80;99.90;;;;;;5037173;28;20052;-95
2022/07/25 11:55:35;;;;;;;4.05;2.63;;;25.70;99.90;;;;;;5015982;28;20053;-91
2022/07/25 11:58:03;;;;;;;4.53;2.88;;;25.80;99.90;;;;;;5013830;28;20078;-93
2022/07/25 12:00:31;;;;;;;4.00;2.60;;;25.70;99.90;;;;;;5013151;28;20516;-93
2022/07/25 12:03:06;;;;;;;4.47;2.72;;;24.90;99.90;;;;;;5026489;28;20057;-94
2022/07/25 12:05:32;;;;;;;4.88;2.60;;;26.10;99.90;;;;;;5025006;28;20046;-93
2022/07/25 12:08:07;;;;;;;7.78;2.63;;;24.40;99.90;;;;;;5015455;28;20094;-91
2022/07/25 12:10:34;;;;;;;4.13;2.80;;;25.60;99.90;;;;;;5013206;28;20058;-92
2022/07/25 12:13:06;;;;;;;3.67;2.35;;;25.70;99.90;;;;;;5027101;28;20037;-90
2022/07/25 12:15:40;;;;;;;3.28;2.17;;;25.80;99.90;;;;;;5011063;28;20096;-91
2022/07/25 12:18:09;;;;;;;;;;;26.10;99.90;;;;;;5010214;28;20095;-91
2022/07/25 12:20:37;;;;;;;3.03;2.25;;;25.70;99.90;;;;;;5028778;28;20355;-90
2022/07/25 12:23:04;;;;;;;5.15;2.60;;;25.80;99.90;;;;;;5010035;28;20054;-91
2022/07/25 12:25:32;;;;;;;3.45;2.45;;;25.50;99.90;;;;;;4994801;28;20054;-93
2022/07/25 12:28:00;;;;;;;5.35;2.30;;;25.40;99.90;;;;;;5012890;28;20049;-91
2022/07/25 12:30:29;;;;;;;4.68;2.45;;;25.10;99.90;;;;;;5008932;28;20456;-92
2022/07/25 12:32:55;;;;;;;5.32;2.10;;;25.20;99.90;;;;;;5026069;28;20482;-92
2022/07/25 12:35:22;;;;;;;5.35;2.30;;;25.10;99.90;;;;;;4995167;28;20054;-91
2022/07/25 12:37:48;;;;;;;3.47;2.17;;;25.30;99.90;;;;;;5024394;28;20050;-93
2022/07/25 12:40:16;;;;;;;4.38;2.05;;;25.60;99.90;;;;;;5012444;28;20050;-92
2022/07/25 12:42:44;;;;;;;3.50;1.85;;;25.50;99.90;;;;;;4998577;28;20090;-92
2022/07/25 12:45:10;;;;;;;4.25;1.77;;;25.60;99.90;;;;;;5020953;28;20164;-92
2022/07/25 12:47:38;;;;;;;2.67;1.50;;;26.20;99.90;;;;;;5019294;28;20033;-93
2022/07/25 12:50:04;;;;;;;3.75;1.60;;;26.50;99.90;;;;;;5001500;28;20045;-94
2022/07/25 12:52:30;;;;;;;2.35;1.48;;;26.60;99.90;;;;;;5026237;28;20053;-92
2022/07/25 12:54:56;;;;;;;5.03;1.70;;;25.90;99.90;;;;;;5006491;28;20046;-91
2022/07/25 12:57:23;;;;;;;4.45;1.83;;;25.60;99.90;;;;;;5008086;28;20050;-95
2022/07/25 12:59:49;;;;;;;3.20;1.65;;;25.70;99.90;;;;;;5014226;28;20056;-88
2022/07/25 13:02:15;;;;;;;8.38;1.80;;;25.20;99.90;;;;;;5036210;28;20089;-85
2022/07/25 13:04:43;;;;;;;3.83;1.70;;;25.30;99.90;;;;;;5021143;28;20034;-93
2022/07/25 13:07:09;;;;;;;3.95;1.77;;;25.50;99.90;;;;;;5018738;28;20080;-92
2022/07/25 13:09:34;;;;;;;5.18;1.65;;;25.80;99.90;;;;;;5022582;28;20105;-90